createdAt,value
2022-10-17T00:00:53.005Z,6.00
2022-10-17T00:04:55.849Z,6.15
2022-10-17T00:08:58.766Z,5.32
2022-10-17T00:13:02.987Z,5.60
2022-10-17T00:17:06.180Z,5.78
2022-10-17T00:21:16.739Z,6.30
2022-10-17T00:25:20.314Z,5.72
2022-10-17T00:29:24.526Z,5.15
2022-10-17T00:33:27.569Z,5.45
2022-10-17T00:37:31.856Z,5.78
2022-10-17T00:41:35.474Z,6.03
2022-10-17T00:45:42.886Z,5.68
2022-10-17T00:49:49.355Z,6.03
2022-10-17T00:53:52.692Z,5.82
2022-10-17T00:57:55.990Z,6.43
2022-10-17T01:02:03.903Z,6.30
2022-10-17T01:06:06.876Z,6.18
2022-10-17T01:10:11.656Z,5.65
2022-10-17T01:14:24.787Z,5.70
2022-10-17T01:18:42.722Z,5.25
2022-10-17T01:22:51.174Z,5.43
2022-10-17T01:27:10.214Z,5.10
2022-10-17T01:31:16.688Z,5.07
2022-10-17T01:35:26.726Z,5.13
2022-10-17T01:39:38.453Z,5.00
2022-10-17T01:43:48.130Z,5.15
2022-10-17T01:47:54.256Z,5.07
2022-10-17T01:52:01.871Z,4.85
2022-10-17T01:56:07.970Z,5.18
2022-10-17T02:00:15.462Z,5.10
2022-10-17T02:04:19.796Z,4.90
2022-10-17T02:08:42.886Z,4.90
2022-10-17T02:12:52.939Z,4.63
2022-10-17T02:17:05.463Z,4.60
2022-10-17T02:21:14.489Z,4.82
2022-10-17T02:25:30.393Z,4.45
2022-10-17T02:29:38.659Z,4.60
2022-10-17T02:33:46.269Z,4.35
2022-10-17T02:37:52.767Z,4.40
2022-10-17T02:42:01.214Z,4.35
2022-10-17T02:46:04.489Z,4.10
2022-10-17T02:50:08.153Z,3.92
2022-10-17T02:54:21.175Z,3.95
2022-10-17T02:58:29.092Z,4.10
2022-10-17T03:02:40.578Z,3.88
2022-10-17T03:07:29.760Z,4.03
2022-10-17T03:12:04.979Z,3.63
2022-10-17T03:16:36.931Z,4.20
2022-10-17T03:20:43.948Z,4.03
2022-10-17T03:24:46.830Z,3.85
2022-10-17T03:28:53.699Z,3.80
2022-10-17T03:32:59.099Z,3.97
2022-10-17T03:37:03.125Z,3.80
2022-10-17T03:41:08.768Z,3.83
2022-10-17T03:45:14.640Z,3.90
2022-10-17T03:49:18.333Z,4.10
2022-10-17T03:53:21.483Z,3.78
2022-10-17T03:57:24.744Z,3.85
2022-10-17T04:01:29.918Z,3.90
2022-10-17T04:05:32.862Z,3.70
2022-10-17T04:09:35.834Z,3.85
2022-10-17T04:13:47.206Z,4.00
2022-10-17T04:17:51.447Z,4.25
2022-10-17T04:21:54.329Z,4.22
2022-10-17T04:25:58.316Z,3.83
2022-10-17T04:30:01.901Z,4.55
2022-10-17T04:34:08.943Z,3.92
2022-10-17T04:38:12.193Z,4.03
2022-10-17T04:42:15.370Z,3.92
2022-10-17T04:46:18.585Z,4.30
2022-10-17T04:50:23.863Z,4.25
2022-10-17T04:54:46.614Z,4.57
2022-10-17T04:58:50.642Z,4.90
2022-10-17T05:02:54.983Z,4.70
2022-10-17T05:06:59.303Z,5.32
2022-10-17T05:11:18.966Z,5.10
2022-10-17T05:15:21.878Z,5.05
2022-10-17T05:19:24.968Z,4.50
2022-10-17T05:23:30.580Z,5.10
2022-10-17T05:27:33.956Z,5.10
2022-10-17T05:31:37.651Z,4.75
2022-10-17T05:35:42.993Z,5.13
2022-10-17T05:39:50.687Z,4.63
2022-10-17T05:43:55.093Z,4.40
2022-10-17T05:48:08.958Z,4.22
2022-10-17T05:52:12.036Z,4.00
2022-10-17T05:56:30.970Z,3.90
2022-10-17T06:00:34.131Z,4.30
2022-10-17T06:04:37.875Z,4.50
2022-10-17T06:08:40.860Z,4.40
2022-10-17T06:12:47.716Z,3.85
2022-10-17T06:16:51.436Z,3.85
2022-10-17T06:20:54.527Z,3.95
2022-10-17T06:24:57.657Z,4.90
2022-10-17T06:29:02.014Z,3.90
2022-10-17T06:33:10.823Z,3.88
2022-10-17T06:37:13.670Z,3.72
2022-10-17T06:41:19.245Z,3.97
2022-10-17T06:45:23.462Z,4.03
2022-10-17T06:49:48.979Z,3.70
2022-10-17T06:54:00.646Z,3.70
2022-10-17T06:58:42.137Z,4.20
2022-10-17T07:02:59.917Z,3.38
2022-10-17T07:07:03.361Z,4.18
2022-10-17T07:11:11.617Z,3.75
2022-10-17T07:15:14.628Z,3.55
2022-10-17T07:19:18.819Z,3.28
2022-10-17T07:23:21.680Z,3.60
2022-10-17T07:27:24.711Z,3.92
2022-10-17T07:31:27.948Z,3.63
2022-10-17T07:35:32.137Z,3.70
2022-10-17T07:39:36.366Z,3.38
2022-10-17T07:43:41.609Z,3.45
2022-10-17T07:47:44.715Z,3.70
2022-10-17T07:51:52.543Z,2.97
2022-10-17T07:55:55.483Z,3.40
2022-10-17T07:59:58.295Z,3.70
2022-10-17T08:04:01.190Z,3.67
2022-10-17T08:08:05.659Z,3.45
2022-10-17T08:12:08.491Z,3.55
2022-10-17T08:16:13.829Z,3.40
2022-10-17T08:20:16.893Z,3.60
2022-10-17T08:24:21.182Z,3.40
2022-10-17T08:28:24.003Z,3.40
2022-10-17T08:32:29.057Z,3.22
2022-10-17T08:36:32.053Z,3.70
2022-10-17T08:40:38.234Z,3.22
2022-10-17T08:44:50.219Z,3.70
2022-10-17T08:48:53.305Z,3.45
2022-10-17T08:53:02.809Z,3.22
2022-10-17T08:57:12.763Z,3.58
2022-10-17T09:01:30.019Z,3.60
2022-10-17T09:05:42.326Z,3.80
2022-10-17T09:09:58.659Z,3.92
2022-10-17T09:14:15.489Z,3.35
2022-10-17T09:18:22.195Z,3.42
2022-10-17T09:22:28.257Z,3.45
2022-10-17T09:26:31.539Z,3.40
2022-10-17T09:30:46.223Z,4.30
2022-10-17T09:34:49.314Z,3.10
2022-10-17T09:38:54.589Z,2.78
2022-10-17T09:42:57.450Z,3.20
2022-10-17T09:47:16.257Z,3.45
2022-10-17T09:51:25.856Z,3.00
2022-10-17T09:55:38.431Z,2.95
2022-10-17T09:59:44.863Z,3.28
2022-10-17T10:03:49.401Z,3.22
2022-10-17T10:08:04.208Z,3.17
2022-10-17T10:12:18.780Z,3.10
2022-10-17T10:16:25.262Z,3.15
2022-10-17T10:20:35.973Z,3.70
2022-10-17T10:24:38.786Z,3.10
2022-10-17T10:28:42.189Z,2.70
2022-10-17T10:32:47.281Z,2.90
2022-10-17T10:36:59.033Z,3.40
2022-10-17T10:41:07.320Z,2.92
2022-10-17T10:45:42.822Z,2.88
2022-10-17T10:49:41.474Z,3.08
2022-10-17T10:53:49.370Z,2.97
2022-10-17T10:57:56.000Z,2.88
2022-10-17T11:02:03.202Z,3.03
2022-10-17T11:06:14.348Z,2.80
2022-10-17T11:10:26.171Z,2.78
2022-10-17T11:14:39.718Z,2.55
2022-10-17T11:18:48.488Z,2.53
2022-10-17T11:22:57.465Z,2.50
2022-10-17T11:27:04.967Z,2.53
2022-10-17T11:31:12.936Z,2.83
2022-10-17T11:35:22.069Z,2.40
2022-10-17T11:39:32.231Z,2.70
2022-10-17T11:43:41.002Z,2.88
2022-10-17T11:47:47.803Z,3.15
2022-10-17T11:52:03.132Z,3.00
2022-10-17T11:56:07.218Z,3.08
2022-10-17T12:00:31.376Z,4.13
2022-10-17T12:04:49.549Z,2.78
2022-10-17T12:08:58.631Z,2.88
2022-10-17T12:13:35.754Z,3.42
2022-10-17T12:17:41.687Z,2.88
2022-10-17T12:21:56.293Z,2.72
2022-10-17T12:26:04.764Z,2.92
2022-10-17T12:30:18.769Z,2.67
2022-10-17T12:34:24.810Z,2.90
2022-10-17T12:38:29.086Z,2.85
2022-10-17T12:42:49.737Z,3.17
2022-10-17T12:46:53.063Z,3.10
2022-10-17T12:55:29.892Z,3.47
2022-10-17T12:59:33.870Z,3.00
2022-10-17T13:03:44.522Z,2.90
2022-10-17T13:07:50.431Z,3.50
2022-10-17T13:11:54.501Z,3.17
2022-10-17T13:15:57.270Z,3.60
2022-10-17T13:20:00.190Z,3.45
2022-10-17T13:24:21.144Z,2.83
2022-10-17T13:28:24.002Z,3.38
2022-10-17T13:32:35.852Z,3.28
2022-10-17T13:36:38.703Z,3.40
2022-10-17T13:40:49.958Z,3.22
2022-10-17T13:44:53.613Z,3.75
2022-10-17T13:48:57.657Z,3.20
2022-10-17T13:53:18.230Z,3.40
2022-10-17T13:57:25.610Z,3.40
2022-10-17T14:01:29.970Z,4.00
2022-10-17T14:05:34.557Z,2.97
2022-10-17T14:09:37.592Z,3.70
2022-10-17T14:13:42.484Z,3.10
2022-10-17T14:17:46.757Z,3.45
2022-10-17T14:21:50.454Z,3.30
2022-10-17T14:26:06.965Z,3.17
2022-10-17T14:35:16.617Z,3.10
2022-10-17T14:39:25.688Z,3.17
2022-10-17T14:43:31.796Z,3.22
2022-10-17T14:47:43.645Z,3.13
2022-10-17T14:52:20.390Z,3.65
2022-10-17T14:56:25.817Z,3.80
2022-10-17T15:00:29.389Z,3.50
2022-10-17T15:04:33.544Z,4.00
2022-10-17T15:08:36.435Z,4.68
2022-10-17T15:12:43.603Z,3.90
2022-10-17T15:16:50.794Z,3.53
2022-10-17T15:21:04.643Z,3.38
2022-10-17T15:25:15.571Z,3.53
2022-10-17T15:29:21.443Z,3.88
2022-10-17T15:33:24.300Z,4.57
2022-10-17T15:37:49.382Z,3.90
2022-10-17T15:41:52.276Z,3.97
2022-10-17T15:45:55.311Z,4.13
2022-10-17T15:49:58.577Z,3.72
2022-10-17T15:54:03.075Z,3.88
2022-10-17T15:58:06.019Z,3.63
2022-10-17T16:02:14.760Z,3.80
2022-10-17T16:06:19.214Z,4.10
2022-10-17T16:10:26.482Z,3.40
2022-10-17T16:14:29.458Z,3.80
2022-10-17T16:18:32.401Z,3.30
2022-10-17T16:22:36.895Z,3.80
2022-10-17T16:26:42.270Z,4.10
2022-10-17T16:30:46.272Z,3.53
2022-10-17T16:34:49.181Z,4.38
2022-10-17T16:38:54.024Z,3.80
2022-10-17T16:42:58.174Z,3.42
2022-10-17T16:47:01.318Z,3.60
2022-10-17T16:51:04.171Z,3.60
2022-10-17T16:55:08.649Z,3.63
2022-10-17T16:59:13.301Z,3.20
2022-10-17T17:03:16.117Z,3.90
2022-10-17T17:07:19.858Z,3.92
2022-10-17T17:11:24.866Z,4.05
2022-10-17T17:15:29.027Z,4.43
2022-10-17T17:19:31.973Z,5.00
2022-10-17T17:23:36.165Z,5.05
2022-10-17T17:27:38.934Z,4.28
2022-10-17T17:31:43.257Z,5.20
2022-10-17T17:35:46.184Z,5.30
2022-10-17T17:39:48.950Z,4.72
2022-10-17T17:43:52.359Z,5.25
2022-10-17T17:47:56.812Z,4.90
2022-10-17T17:51:59.663Z,4.43
2022-10-17T17:56:03.513Z,4.85
2022-10-17T18:00:07.699Z,5.03
2022-10-17T18:04:12.385Z,5.05
2022-10-17T18:08:15.205Z,5.55
2022-10-17T18:12:18.441Z,5.30
2022-10-17T18:16:21.347Z,5.78
2022-10-17T18:20:25.547Z,5.70
2022-10-17T18:24:28.452Z,5.47
2022-10-17T18:28:31.459Z,5.75
2022-10-17T18:32:34.545Z,5.75
2022-10-17T18:36:38.868Z,5.78
2022-10-17T18:40:41.829Z,6.13
2022-10-17T18:44:44.983Z,6.57
2022-10-17T18:48:49.405Z,6.57
2022-10-17T18:52:53.731Z,6.75
2022-10-17T18:56:57.027Z,6.70
2022-10-17T19:01:04.421Z,6.80
2022-10-17T19:05:08.828Z,7.03
2022-10-17T19:09:15.434Z,7.45
2022-10-17T19:13:21.532Z,7.05
2022-10-17T19:17:24.709Z,7.18
2022-10-17T19:21:28.124Z,7.28
2022-10-17T19:25:34.011Z,7.95
2022-10-17T19:29:36.927Z,8.05
2022-10-17T19:33:39.730Z,8.00
2022-10-17T19:37:42.554Z,8.43
2022-10-17T19:41:48.851Z,11.85
2022-10-17T19:45:56.483Z,8.82
2022-10-17T19:49:59.307Z,8.60
2022-10-17T19:54:02.666Z,8.80
2022-10-17T19:58:06.840Z,9.00
2022-10-17T20:02:13.391Z,9.10
2022-10-17T20:06:17.951Z,9.55
2022-10-17T20:10:21.251Z,9.88
2022-10-17T20:14:25.499Z,10.48
2022-10-17T20:18:28.933Z,10.35
2022-10-17T20:22:32.453Z,10.52
2022-10-17T20:26:39.043Z,11.73
2022-10-17T20:30:47.878Z,10.98
2022-10-17T20:34:50.669Z,13.07
2022-10-17T20:38:54.823Z,12.27
2022-10-17T20:42:57.713Z,12.55
2022-10-17T20:47:02.851Z,12.77
2022-10-17T20:51:08.726Z,12.95
2022-10-17T20:55:12.192Z,12.88
2022-10-17T20:59:16.895Z,13.80
2022-10-17T21:03:21.053Z,12.80
2022-10-17T21:07:25.500Z,12.77
2022-10-17T21:11:29.460Z,13.85
2022-10-17T21:15:38.553Z,13.85
2022-10-17T21:19:43.135Z,12.27
2022-10-17T21:23:47.486Z,13.57
2022-10-17T21:27:52.941Z,13.57
2022-10-17T21:31:56.159Z,14.20
2022-10-17T21:36:00.349Z,13.85
2022-10-17T21:40:03.253Z,14.13
2022-10-17T21:44:08.105Z,14.38
2022-10-17T21:48:13.084Z,12.82
2022-10-17T21:52:17.746Z,14.43
2022-10-17T21:56:21.948Z,14.93
2022-10-17T22:00:24.737Z,15.40
2022-10-17T22:04:27.577Z,15.27
2022-10-17T22:08:32.345Z,14.50
2022-10-17T22:12:35.161Z,14.13
2022-10-17T22:16:40.071Z,15.73
2022-10-17T22:20:42.913Z,15.30
2022-10-17T22:24:47.033Z,14.77
2022-10-17T22:28:49.881Z,13.40
2022-10-17T22:32:52.706Z,11.65
2022-10-17T22:36:55.539Z,10.75
2022-10-17T22:40:59.704Z,10.25
2022-10-17T22:45:03.201Z,9.88
2022-10-17T22:49:06.039Z,10.13
2022-10-17T22:53:08.890Z,11.07
2022-10-17T22:57:13.327Z,9.40
2022-10-17T23:01:18.983Z,9.60
2022-10-17T23:05:21.958Z,8.50
2022-10-17T23:09:24.805Z,7.00
2022-10-17T23:13:29.062Z,6.60
2022-10-17T23:17:31.858Z,5.32
2022-10-17T23:21:34.651Z,5.50
2022-10-17T23:25:37.474Z,4.70
2022-10-17T23:29:41.614Z,5.13
2022-10-17T23:33:45.693Z,6.03
2022-10-17T23:37:48.494Z,5.63
2022-10-17T23:41:51.294Z,5.60
2022-10-17T23:45:55.420Z,5.07
2022-10-17T23:49:58.548Z,5.22
2022-10-17T23:54:01.352Z,5.50
2022-10-17T23:58:04.222Z,4.78
